Portada
METAR-TAF:

METAR-TAF

Aeroports :

Mwanza, Tanzània

latitud: 02-28S, longitud: 032-55E, altitud: 1139 m

Observació

L'informe es va fer fa 53 minuts, a les 21:00 UTC
Vent 10 kt del Est
Temperatura 23°C
Humitat 53%
Pressió 1016 hPa
Visibilitat 10 km o més
Escasses núvols a una alçada de 1900 ft
Cel ennuvolat a una alçada de 10000 ft

METAR: HTMW 102100Z 10010KT 9999 FEW019 BKN100 23/13 Q1016 NOSIG

Hora: 00:53 (21:53 UTC)

Pronòstic

L'informe es va fer fa 4 hores i 53 minuts, a les 17:00 UTC
Pronòstic vàlid del 10 a les 18 UTC al 11 a les 18 UTC
Vent 10 kt del Sud/Sud-Est
Visibilitat 10 km o més
Escasses núvols a una alçada de 1900 ft
Evolucionant progressivament
l' 11 a les 12 UTC al 11 a les 16 UTC
Vent 10 kt del Nord-Oest

TAF: HTMW 101700Z 1018/1118 15010KT 9999 FEW019 BECMG 1112/1116 32010KT

Observacions i pronòstics meteorològics de més de 4000 aeroports (METAR i TAF).

Les estacions disponibles són els punts grocs i vermells al mapa.

Posi el ratolí al punt desitjat per veure el nom de l'estació.

Feu clic per veure les observacions i els pronòstics meteorològics.

Per canviar el mapa: feu clic els botons verds amb una creu de color negre per apropar; al botó verd amb un guió per allunyar la imatge; o en les fletxes verdes per a mapes adjacents.


METAR-TAF: